createdAt,value
2023-03-16T00:02:09.640Z,9.12
2023-03-16T00:04:37.883Z,8.98
2023-03-16T00:07:09.925Z,8.93
2023-03-16T00:09:41.187Z,8.99
2023-03-16T00:12:16.148Z,9.07
2023-03-16T00:14:48.414Z,9.13
2023-03-16T00:17:19.916Z,9.20
2023-03-16T00:19:55.604Z,9.14
2023-03-16T00:22:27.980Z,9.15
2023-03-16T00:24:55.678Z,9.04
2023-03-16T00:27:23.819Z,8.95
2023-03-16T00:29:56.476Z,9.01
2023-03-16T00:32:30.216Z,9.09
2023-03-16T00:34:57.950Z,8.96
2023-03-16T00:37:26.984Z,8.93
2023-03-16T00:39:56.432Z,8.98
2023-03-16T00:42:29.526Z,9.22
2023-03-16T00:44:57.822Z,9.20
2023-03-16T00:47:30.464Z,9.24
2023-03-16T00:49:58.043Z,9.16
2023-03-16T00:52:27.404Z,9.19
2023-03-16T00:54:55.476Z,9.16
2023-03-16T00:57:25.224Z,9.36
2023-03-16T00:59:52.719Z,9.63
2023-03-16T01:02:23.567Z,9.76
2023-03-16T01:04:51.994Z,9.74
2023-03-16T01:07:19.625Z,9.81
2023-03-16T01:09:46.537Z,10.67
2023-03-16T01:12:16.931Z,10.39
2023-03-16T01:14:48.811Z,10.36
2023-03-16T01:17:17.727Z,10.27
2023-03-16T01:19:45.937Z,10.31
2023-03-16T01:22:13.056Z,10.55
2023-03-16T01:24:40.888Z,10.67
2023-03-16T01:27:09.169Z,10.65
2023-03-16T01:29:37.316Z,10.48
2023-03-16T01:32:04.873Z,10.52
2023-03-16T01:34:32.086Z,10.31
2023-03-16T01:37:00.280Z,10.20
2023-03-16T01:39:38.593Z,10.24
2023-03-16T01:42:06.647Z,10.20
2023-03-16T01:44:55.198Z,10.22
2023-03-16T01:47:25.168Z,10.36
2023-03-16T01:49:56.087Z,10.34
2023-03-16T01:52:33.471Z,10.17
2023-03-16T01:55:09.364Z,10.43
2023-03-16T01:57:42.815Z,10.45
2023-03-16T02:00:19.698Z,10.40
2023-03-16T02:03:16.110Z,10.69
2023-03-16T02:05:56.334Z,10.68
2023-03-16T02:08:25.471Z,10.52
2023-03-16T02:10:54.815Z,10.59
2023-03-16T02:13:24.282Z,10.42
2023-03-16T02:15:53.746Z,10.26
2023-03-16T02:18:23.064Z,10.30
2023-03-16T02:20:53.326Z,10.33
2023-03-16T02:23:24.144Z,10.45
2023-03-16T02:26:23.171Z,10.37
2023-03-16T02:29:00.258Z,10.32
2023-03-16T02:31:29.525Z,10.42
2023-03-16T02:33:57.455Z,10.52
2023-03-16T02:36:24.396Z,10.25
2023-03-16T02:38:51.371Z,10.04
2023-03-16T02:41:21.207Z,10.00
2023-03-16T02:44:04.726Z,10.09
2023-03-16T02:46:35.981Z,10.16
2023-03-16T02:49:25.216Z,10.28
2023-03-16T02:51:52.619Z,10.07
2023-03-16T02:54:20.379Z,10.24
2023-03-16T02:56:47.428Z,10.47
2023-03-16T02:59:14.638Z,10.47
2023-03-16T03:01:42.074Z,10.50
2023-03-16T03:04:10.379Z,10.55
2023-03-16T03:06:37.247Z,10.74
2023-03-16T03:09:05.469Z,10.90
2023-03-16T03:11:32.528Z,10.86
2023-03-16T03:14:00.288Z,10.89
2023-03-16T03:16:28.295Z,10.98
2023-03-16T03:18:56.585Z,10.85
2023-03-16T03:21:25.193Z,10.95
2023-03-16T03:23:52.324Z,11.03
2023-03-16T03:26:20.003Z,10.97
2023-03-16T03:28:48.078Z,10.58
2023-03-16T03:31:22.433Z,10.58
2023-03-16T03:33:51.006Z,10.75
2023-03-16T03:36:18.048Z,10.67
2023-03-16T03:38:46.331Z,10.85
2023-03-16T03:41:13.249Z,10.80
2023-03-16T03:43:40.212Z,10.78
2023-03-16T03:46:12.955Z,10.49
2023-03-16T03:48:40.575Z,10.82
2023-03-16T03:51:07.617Z,10.85
2023-03-16T03:53:56.577Z,10.76
2023-03-16T03:56:39.004Z,10.38
2023-03-16T03:59:10.929Z,10.42
2023-03-16T04:02:04.110Z,10.17
2023-03-16T04:04:41.268Z,10.04
2023-03-16T04:07:10.798Z,9.99
2023-03-16T04:09:38.456Z,10.02
2023-03-16T04:12:07.515Z,10.18
2023-03-16T04:14:34.474Z,10.16
2023-03-16T04:17:05.069Z,10.25
2023-03-16T04:19:34.734Z,10.11
2023-03-16T04:22:02.399Z,10.21
2023-03-16T04:24:29.405Z,10.11
2023-03-16T04:26:56.418Z,10.32
2023-03-16T04:29:25.475Z,10.29
2023-03-16T04:31:54.027Z,10.21
2023-03-16T04:34:25.105Z,10.11
2023-03-16T04:36:56.119Z,10.29
2023-03-16T04:39:23.356Z,10.19
2023-03-16T04:41:50.346Z,10.09
2023-03-16T04:44:21.835Z,10.13
2023-03-16T04:46:50.087Z,10.05
2023-03-16T04:49:17.964Z,9.90
2023-03-16T04:51:45.844Z,9.83
2023-03-16T04:54:16.118Z,9.86
2023-03-16T04:56:44.056Z,9.86
2023-03-16T04:59:24.559Z,10.34
2023-03-16T05:02:00.108Z,10.07
2023-03-16T05:04:27.198Z,10.10
2023-03-16T05:06:54.225Z,9.99
2023-03-16T05:09:26.649Z,10.02
2023-03-16T05:11:53.584Z,10.02
2023-03-16T05:14:20.516Z,10.13
2023-03-16T05:17:06.767Z,10.05
2023-03-16T05:19:33.863Z,10.03
2023-03-16T05:22:00.905Z,10.48
2023-03-16T05:24:27.696Z,10.62
2023-03-16T05:26:54.691Z,10.86
2023-03-16T05:29:23.502Z,11.03
2023-03-16T05:31:50.406Z,11.02
2023-03-16T05:34:21.251Z,10.78
2023-03-16T05:36:48.336Z,10.50
2023-03-16T05:39:16.991Z,10.68
2023-03-16T05:41:47.601Z,10.70
2023-03-16T05:44:27.889Z,10.34
2023-03-16T05:47:07.016Z,10.52
2023-03-16T05:49:38.354Z,10.44
2023-03-16T05:52:10.346Z,10.10
2023-03-16T05:54:37.665Z,10.03
2023-03-16T05:57:06.859Z,10.15
2023-03-16T05:59:34.880Z,9.93
2023-03-16T06:02:03.280Z,10.03
2023-03-16T06:04:31.658Z,9.92
2023-03-16T06:07:00.197Z,10.08
2023-03-16T06:09:28.972Z,9.92
2023-03-16T06:11:55.847Z,10.11
2023-03-16T06:14:24.037Z,10.15
2023-03-16T06:16:52.919Z,10.18
2023-03-16T06:19:20.096Z,9.71
2023-03-16T06:21:51.313Z,9.73
2023-03-16T06:24:18.940Z,9.69
2023-03-16T06:26:45.773Z,9.82
2023-03-16T06:29:13.559Z,9.80
2023-03-16T06:31:41.479Z,9.85
2023-03-16T06:34:08.426Z,9.90
2023-03-16T06:36:35.477Z,9.88
2023-03-16T06:39:04.580Z,9.66
2023-03-16T06:41:38.832Z,9.78
2023-03-16T06:44:06.362Z,9.76
2023-03-16T06:46:37.456Z,9.80
2023-03-16T06:49:04.756Z,9.81
2023-03-16T06:51:32.818Z,9.66
2023-03-16T06:54:00.429Z,9.96
2023-03-16T06:56:28.051Z,10.02
2023-03-16T06:58:56.051Z,10.03
2023-03-16T07:01:23.232Z,9.72
2023-03-16T07:03:50.417Z,9.82
2023-03-16T07:06:22.734Z,9.69
2023-03-16T07:08:49.678Z,10.20
2023-03-16T07:11:17.770Z,9.97
2023-03-16T07:13:44.737Z,9.77
2023-03-16T07:16:13.273Z,9.82
2023-03-16T07:18:40.197Z,10.18
2023-03-16T07:21:11.175Z,10.02
2023-03-16T07:23:38.816Z,10.07
2023-03-16T07:26:08.399Z,9.95
2023-03-16T07:28:39.437Z,9.69
2023-03-16T07:31:07.950Z,9.48
2023-03-16T07:33:39.186Z,9.36
2023-03-16T07:36:10.960Z,9.27
2023-03-16T07:38:44.135Z,9.24
2023-03-16T07:41:12.554Z,9.20
2023-03-16T07:43:40.866Z,9.36
2023-03-16T07:46:13.852Z,9.19
2023-03-16T07:48:42.776Z,9.05
2023-03-16T07:51:12.859Z,9.25
2023-03-16T07:53:40.789Z,9.50
2023-03-16T07:56:21.641Z,9.59
2023-03-16T07:58:52.242Z,9.63
2023-03-16T08:01:19.131Z,9.81
2023-03-16T08:03:48.325Z,9.34
2023-03-16T08:06:15.366Z,9.24
2023-03-16T08:08:43.097Z,9.37
2023-03-16T08:11:23.549Z,9.53
2023-03-16T08:13:56.698Z,9.38
2023-03-16T08:16:27.783Z,9.31
2023-03-16T08:18:57.975Z,9.16
2023-03-16T08:21:25.046Z,9.21
2023-03-16T08:23:53.795Z,9.10
2023-03-16T08:26:21.532Z,9.29
2023-03-16T08:28:53.885Z,9.32
2023-03-16T08:31:22.279Z,9.22
2023-03-16T08:33:54.668Z,9.28
2023-03-16T08:36:25.464Z,9.26
2023-03-16T08:39:06.635Z,9.07
2023-03-16T08:41:40.664Z,9.16
2023-03-16T08:44:15.471Z,8.97
2023-03-16T08:46:42.665Z,8.83
2023-03-16T08:49:10.199Z,8.95
2023-03-16T08:51:37.409Z,8.88
2023-03-16T08:54:04.366Z,9.00
2023-03-16T08:56:31.293Z,9.09
2023-03-16T08:58:58.553Z,9.38
2023-03-16T09:01:25.903Z,9.50
2023-03-16T09:03:52.981Z,9.35
2023-03-16T09:06:20.111Z,9.32
2023-03-16T09:08:47.900Z,9.32
2023-03-16T09:11:19.360Z,9.36
2023-03-16T09:13:47.368Z,9.48
2023-03-16T09:16:15.977Z,9.23
2023-03-16T09:18:43.842Z,9.34
2023-03-16T09:21:13.289Z,9.32
2023-03-16T09:23:42.829Z,9.50
2023-03-16T09:26:12.618Z,9.13
2023-03-16T09:28:42.307Z,9.19
2023-03-16T09:31:15.608Z,9.32
2023-03-16T09:33:43.018Z,9.53
2023-03-16T09:36:11.987Z,9.23
2023-03-16T09:38:39.441Z,9.25
2023-03-16T09:41:10.887Z,9.18
2023-03-16T09:43:49.584Z,9.11
2023-03-16T09:46:24.419Z,9.07
2023-03-16T09:48:52.371Z,9.30
2023-03-16T09:51:28.371Z,9.34
2023-03-16T09:53:59.604Z,9.23
2023-03-16T09:56:37.997Z,9.25
2023-03-16T09:59:11.904Z,8.96
2023-03-16T10:01:46.530Z,8.98
2023-03-16T10:04:32.391Z,9.05
2023-03-16T10:07:18.988Z,9.25
2023-03-16T10:10:06.755Z,9.35
2023-03-16T10:12:41.565Z,8.98
2023-03-16T10:15:19.439Z,9.11
2023-03-16T10:17:54.515Z,9.22
2023-03-16T10:20:23.921Z,9.06
2023-03-16T10:22:52.939Z,9.03
2023-03-16T10:25:22.571Z,8.97
2023-03-16T10:27:50.426Z,8.78
2023-03-16T10:30:32.095Z,9.18
2023-03-16T10:33:03.620Z,9.56
2023-03-16T10:35:52.263Z,9.81
2023-03-16T10:38:27.865Z,9.39
2023-03-16T10:40:55.095Z,9.37
2023-03-16T10:43:22.820Z,9.16
2023-03-16T10:45:50.238Z,9.23
2023-03-16T10:48:20.537Z,9.09
2023-03-16T10:50:54.071Z,9.25
2023-03-16T10:53:28.939Z,9.21
2023-03-16T10:56:02.143Z,8.85
2023-03-16T10:58:34.446Z,9.11
2023-03-16T11:01:01.816Z,8.92
2023-03-16T11:03:40.108Z,8.86
2023-03-16T11:06:08.966Z,9.24
2023-03-16T11:08:39.001Z,9.06
2023-03-16T11:11:14.865Z,8.80
2023-03-16T11:13:47.640Z,9.36
2023-03-16T11:16:14.486Z,9.25
2023-03-16T11:18:48.939Z,9.25
2023-03-16T11:21:26.309Z,9.03
2023-03-16T11:23:56.218Z,8.94
2023-03-16T11:26:29.135Z,8.96
2023-03-16T11:29:33.899Z,9.09
2023-03-16T11:32:05.857Z,9.24
2023-03-16T11:34:34.297Z,9.13
2023-03-16T11:37:23.994Z,9.22
2023-03-16T11:40:26.369Z,9.17
2023-03-16T11:42:53.210Z,9.08
2023-03-16T11:45:25.338Z,8.74
2023-03-16T11:48:15.492Z,8.60
2023-03-16T11:51:06.482Z,8.83
2023-03-16T11:53:39.159Z,8.85
2023-03-16T11:56:18.409Z,8.79
2023-03-16T11:59:27.747Z,8.57
2023-03-16T12:02:07.366Z,8.26
2023-03-16T12:04:55.314Z,8.25
2023-03-16T12:07:35.516Z,8.32
2023-03-16T12:10:20.501Z,8.29
2023-03-16T12:12:53.499Z,7.88
2023-03-16T12:15:27.812Z,8.07
2023-03-16T12:18:00.745Z,7.82
2023-03-16T12:20:32.199Z,8.09
2023-03-16T12:23:06.463Z,8.00
2023-03-16T12:25:38.187Z,8.05
2023-03-16T12:28:14.366Z,8.15
2023-03-16T12:31:10.531Z,8.18
2023-03-16T12:34:10.088Z,8.18
2023-03-16T12:36:48.785Z,8.49
2023-03-16T12:39:52.873Z,8.18
2023-03-16T12:42:28.084Z,8.06
2023-03-16T12:45:04.598Z,8.04
2023-03-16T12:48:01.034Z,8.14
2023-03-16T12:50:28.079Z,8.28
2023-03-16T12:52:54.914Z,8.27
2023-03-16T12:55:28.173Z,8.18
2023-03-16T12:58:06.225Z,8.13
2023-03-16T13:00:40.775Z,8.13
2023-03-16T13:03:15.766Z,8.32
2023-03-16T13:05:51.078Z,8.35
2023-03-16T13:08:21.247Z,8.39
2023-03-16T13:11:12.670Z,8.37
2023-03-16T13:14:01.707Z,8.16
2023-03-16T13:16:32.076Z,8.12
2023-03-16T13:18:59.515Z,7.95
2023-03-16T13:21:26.348Z,8.22
2023-03-16T13:23:59.879Z,8.25
2023-03-16T13:26:38.680Z,8.34
2023-03-16T13:29:22.369Z,8.26
2023-03-16T13:31:51.352Z,8.11
2023-03-16T13:34:30.524Z,8.10
2023-03-16T13:37:00.182Z,8.24
2023-03-16T13:39:30.360Z,8.17
2023-03-16T13:42:14.433Z,7.94
2023-03-16T13:44:42.127Z,7.81
2023-03-16T13:47:14.791Z,7.99
2023-03-16T13:49:55.853Z,7.98
2023-03-16T13:52:28.091Z,8.05
2023-03-16T13:54:56.452Z,7.69
2023-03-16T13:57:28.454Z,7.52
2023-03-16T14:00:24.841Z,7.45
2023-03-16T14:02:53.182Z,7.43
2023-03-16T14:05:35.305Z,7.49
2023-03-16T14:08:05.077Z,7.54
2023-03-16T14:10:35.010Z,7.50
2023-03-16T14:13:25.506Z,7.76
2023-03-16T14:16:17.778Z,7.89
2023-03-16T14:18:52.330Z,7.82
2023-03-16T14:21:28.496Z,7.99
2023-03-16T14:24:04.792Z,7.67
2023-03-16T14:26:43.265Z,7.62
2023-03-16T14:29:22.290Z,7.47
2023-03-16T14:31:49.730Z,7.44
2023-03-16T14:34:23.753Z,7.36
2023-03-16T14:36:50.596Z,7.27
2023-03-16T14:39:21.160Z,7.21
2023-03-16T14:41:52.361Z,7.49
2023-03-16T14:44:23.343Z,7.28
2023-03-16T14:46:52.707Z,7.26
2023-03-16T14:49:28.350Z,7.05
2023-03-16T14:52:21.944Z,7.19
2023-03-16T14:54:49.567Z,7.32
2023-03-16T14:57:17.933Z,7.25
2023-03-16T14:59:44.805Z,7.09
2023-03-16T15:02:33.401Z,7.06
2023-03-16T15:05:03.272Z,7.14
2023-03-16T15:07:35.857Z,6.93
2023-03-16T15:10:16.514Z,7.05
2023-03-16T15:12:50.614Z,7.08
2023-03-16T15:15:19.662Z,7.17
2023-03-16T15:17:46.924Z,7.09
2023-03-16T15:20:18.637Z,7.19
2023-03-16T15:22:46.858Z,7.04
2023-03-16T15:25:23.593Z,6.91
2023-03-16T15:27:52.726Z,6.89
2023-03-16T15:30:29.157Z,7.17
2023-03-16T15:32:56.695Z,7.21
2023-03-16T15:35:23.671Z,7.01
2023-03-16T15:37:50.499Z,6.82
2023-03-16T15:40:29.250Z,6.75
2023-03-16T15:42:56.544Z,7.01
2023-03-16T15:45:24.093Z,7.10
2023-03-16T15:47:53.832Z,6.82
2023-03-16T15:50:22.461Z,6.97
2023-03-16T15:52:54.297Z,7.28
2023-03-16T15:55:24.329Z,7.22
2023-03-16T15:58:00.120Z,7.09
2023-03-16T16:00:35.115Z,7.11
2023-03-16T16:03:04.025Z,7.26
2023-03-16T16:05:32.568Z,7.40
2023-03-16T16:08:00.644Z,7.35
2023-03-16T16:10:28.990Z,7.29
2023-03-16T16:12:57.129Z,7.37
2023-03-16T16:15:33.924Z,7.21
2023-03-16T16:18:20.384Z,7.17
2023-03-16T16:20:48.533Z,7.03
2023-03-16T16:23:15.473Z,7.20
2023-03-16T16:25:42.752Z,7.43
2023-03-16T16:28:22.110Z,7.35
2023-03-16T16:30:49.218Z,7.45
2023-03-16T16:33:33.243Z,7.46
2023-03-16T16:36:06.127Z,7.63
2023-03-16T16:38:34.350Z,7.55
2023-03-16T16:41:06.906Z,7.25
2023-03-16T16:43:41.903Z,7.67
2023-03-16T16:46:18.085Z,7.68
2023-03-16T16:49:20.230Z,7.59
2023-03-16T16:51:47.545Z,7.61
2023-03-16T16:54:19.774Z,7.56
2023-03-16T16:56:46.744Z,7.41
2023-03-16T16:59:19.557Z,7.32
2023-03-16T17:01:48.391Z,7.30
2023-03-16T17:04:24.643Z,7.38
2023-03-16T17:06:55.596Z,7.29
2023-03-16T17:09:23.544Z,7.25
2023-03-16T17:11:51.327Z,7.24
2023-03-16T17:14:22.069Z,7.24
2023-03-16T17:16:50.547Z,7.05
2023-03-16T17:19:23.424Z,7.06
2023-03-16T17:21:51.868Z,6.97
2023-03-16T17:24:18.918Z,7.06
2023-03-16T17:26:52.645Z,7.02
2023-03-16T17:29:26.116Z,7.05
2023-03-16T17:31:53.558Z,6.96
2023-03-16T17:34:26.593Z,6.98
2023-03-16T17:36:54.389Z,7.17
2023-03-16T17:39:24.192Z,7.05
2023-03-16T17:41:59.970Z,7.01
2023-03-16T17:44:31.807Z,6.73
2023-03-16T17:46:58.803Z,7.00
2023-03-16T17:49:28.601Z,6.83
2023-03-16T17:51:56.148Z,6.89
2023-03-16T17:54:23.348Z,7.02
2023-03-16T17:56:52.173Z,6.97
2023-03-16T17:59:22.106Z,6.90
2023-03-16T18:01:49.251Z,7.08
2023-03-16T18:04:17.628Z,7.07
2023-03-16T18:06:47.152Z,6.94
2023-03-16T18:09:15.906Z,7.00
2023-03-16T18:11:48.093Z,6.72
2023-03-16T18:14:24.662Z,6.76
2023-03-16T18:16:52.320Z,6.85
2023-03-16T18:19:25.409Z,6.74
2023-03-16T18:21:53.705Z,6.67
2023-03-16T18:24:22.374Z,6.71
2023-03-16T18:26:49.822Z,6.57
2023-03-16T18:29:16.660Z,6.64
2023-03-16T18:31:44.832Z,6.72
2023-03-16T18:34:21.357Z,6.73
2023-03-16T18:36:48.363Z,6.67
2023-03-16T18:39:19.381Z,6.64
2023-03-16T18:41:49.943Z,6.65
2023-03-16T18:44:18.704Z,6.54
2023-03-16T18:46:47.178Z,6.53
2023-03-16T18:49:32.002Z,6.61
2023-03-16T18:51:59.107Z,6.65
2023-03-16T18:54:29.255Z,6.93
2023-03-16T18:56:58.779Z,6.99
2023-03-16T18:59:26.307Z,6.97
2023-03-16T19:01:53.729Z,6.74
2023-03-16T19:04:24.179Z,6.89
2023-03-16T19:06:53.705Z,6.92
2023-03-16T19:09:22.049Z,6.90
2023-03-16T19:11:49.944Z,6.84
2023-03-16T19:14:26.833Z,6.89
2023-03-16T19:16:54.775Z,6.70
2023-03-16T19:19:22.744Z,6.71
2023-03-16T19:21:53.788Z,6.54
2023-03-16T19:24:43.541Z,6.67
2023-03-16T19:27:25.657Z,6.48
2023-03-16T19:29:54.096Z,6.79
2023-03-16T19:32:23.055Z,6.68
2023-03-16T19:34:50.329Z,6.77
2023-03-16T19:37:19.925Z,6.52
2023-03-16T19:39:46.898Z,6.45
2023-03-16T19:42:33.778Z,6.21
2023-03-16T19:45:01.133Z,6.15
2023-03-16T19:47:31.274Z,6.32
2023-03-16T19:50:00.920Z,6.39
2023-03-16T19:52:31.268Z,6.22
2023-03-16T19:54:58.155Z,6.05
2023-03-16T19:57:25.413Z,5.98
2023-03-16T19:59:56.560Z,5.98
2023-03-16T20:02:26.585Z,5.89
2023-03-16T20:04:54.866Z,5.81
2023-03-16T20:07:22.744Z,5.97
2023-03-16T20:09:49.876Z,6.21
2023-03-16T20:12:24.961Z,6.29
2023-03-16T20:14:52.393Z,6.23
2023-03-16T20:17:23.513Z,6.13
2023-03-16T20:19:51.703Z,6.16
2023-03-16T20:22:28.759Z,6.17
2023-03-16T20:24:58.145Z,6.06
2023-03-16T20:27:27.810Z,5.96
2023-03-16T20:29:54.923Z,6.00
2023-03-16T20:32:33.030Z,5.97
2023-03-16T20:34:59.990Z,6.13
2023-03-16T20:37:29.184Z,6.14
2023-03-16T20:39:58.262Z,6.14
2023-03-16T20:42:31.146Z,6.03
2023-03-16T20:44:58.736Z,5.97
2023-03-16T20:47:26.764Z,6.15
2023-03-16T20:49:57.431Z,6.11
2023-03-16T20:52:30.076Z,6.20
2023-03-16T20:54:58.104Z,6.15
2023-03-16T20:57:27.555Z,6.24
2023-03-16T20:59:55.568Z,6.23
2023-03-16T21:02:34.038Z,6.11
2023-03-16T21:05:04.098Z,6.00
2023-03-16T21:07:31.417Z,6.18
2023-03-16T21:09:58.529Z,6.15
2023-03-16T21:12:34.413Z,6.03
2023-03-16T21:15:05.887Z,5.93
2023-03-16T21:17:37.813Z,5.98
2023-03-16T21:20:16.002Z,6.31
2023-03-16T21:22:43.721Z,6.18
2023-03-16T21:25:23.387Z,6.61
2023-03-16T21:27:50.888Z,6.31
2023-03-16T21:30:25.866Z,6.53
2023-03-16T21:32:54.449Z,6.50
2023-03-16T21:35:26.269Z,6.50
2023-03-16T21:37:53.284Z,6.59
2023-03-16T21:40:22.319Z,6.44
2023-03-16T21:42:49.562Z,6.38
2023-03-16T21:45:17.492Z,6.41
2023-03-16T21:47:45.452Z,6.28
2023-03-16T21:50:22.346Z,6.32
2023-03-16T21:52:51.233Z,6.50
2023-03-16T21:55:23.892Z,6.29
2023-03-16T21:57:51.254Z,6.20
2023-03-16T22:00:26.691Z,6.09
2023-03-16T22:02:55.141Z,6.33
2023-03-16T22:05:32.959Z,6.54
2023-03-16T22:08:02.566Z,6.57
2023-03-16T22:10:30.307Z,6.51
2023-03-16T22:12:58.551Z,6.45
2023-03-16T22:15:26.268Z,6.35
2023-03-16T22:17:55.152Z,6.25
2023-03-16T22:20:25.732Z,6.42
2023-03-16T22:22:53.792Z,6.41
2023-03-16T22:25:23.663Z,6.55
2023-03-16T22:27:52.200Z,6.43
2023-03-16T22:30:22.516Z,6.61
2023-03-16T22:32:52.640Z,6.48
2023-03-16T22:35:33.227Z,6.36
2023-03-16T22:38:03.919Z,6.04
2023-03-16T22:40:36.515Z,5.95
2023-03-16T22:43:18.860Z,6.05
2023-03-16T22:45:45.867Z,6.17
2023-03-16T22:48:22.443Z,6.01
2023-03-16T22:50:50.830Z,6.26
2023-03-16T22:53:40.037Z,6.07
2023-03-16T22:56:10.317Z,6.28
2023-03-16T22:58:51.144Z,6.25
2023-03-16T23:01:21.015Z,6.39
2023-03-16T23:03:49.798Z,6.36
2023-03-16T23:06:20.703Z,6.32
2023-03-16T23:08:48.375Z,6.44
2023-03-16T23:11:21.551Z,6.33
2023-03-16T23:13:48.960Z,6.21
2023-03-16T23:16:31.319Z,6.18
2023-03-16T23:18:58.309Z,6.35
2023-03-16T23:21:26.670Z,6.36
2023-03-16T23:24:03.565Z,6.40
2023-03-16T23:26:32.026Z,6.43
2023-03-16T23:28:59.942Z,6.21
2023-03-16T23:31:27.705Z,6.25
2023-03-16T23:33:55.025Z,6.41
2023-03-16T23:36:27.426Z,6.44
2023-03-16T23:38:54.505Z,6.29
2023-03-16T23:41:24.945Z,6.32
2023-03-16T23:43:53.069Z,6.25
2023-03-16T23:46:22.408Z,6.04
2023-03-16T23:48:51.491Z,6.05
2023-03-16T23:51:30.628Z,6.11
2023-03-16T23:53:59.370Z,6.06
2023-03-16T23:56:27.138Z,6.37
2023-03-16T23:58:54.993Z,6.36
